Arverne, New York
Current Conditions -  °F | °C
As of 3:51 PM on Tuesday 27 Jan 2015 (Local Time) from KJFK Reporting Station
Overcast Overcast  
Wind Chill: -11°   Ceiling: 25000
Heat Index: -3°   Visibility: 10mi
Dew Point: -9°   Wind: 18mph
Humidity: 66%   Direction: 350°N
Pressure: 29.66"   Gusts: NA
Location:  40.59°N, 73.8°W
Report Text: KJFK 272051Z 35016KT 10SM FEW024 SCT042 SCT100 OVC250 M03/M09 A2966 RMK AO2 PK WND 34026/2018 SLP044 60000 T10331089 55002 $
Loading
Personal Weather Stations






























Interactive Weather Map New forecast layout! Learn more

10-Day Weather Forecast

Advertisements
Track Severe Weather on mobile